sensor_id;sensor_type;location;lat;lon;timestamp;P1;durP1;ratioP1;P2;durP2;ratioP2
8584;SDS011;7180;52.742;11.420;2023-03-21T00:02:07;21.60;;;19.57;;
8584;SDS011;7180;52.742;11.420;2023-03-21T00:04:32;22.33;;;20.13;;
8584;SDS011;7180;52.742;11.420;2023-03-21T00:06:58;22.83;;;20.73;;
8584;SDS011;7180;52.742;11.420;2023-03-21T00:09:23;23.67;;;21.23;;
8584;SDS011;7180;52.742;11.420;2023-03-21T00:11:48;25.63;;;22.95;;
8584;SDS011;7180;52.742;11.420;2023-03-21T00:14:13;23.97;;;21.47;;
8584;SDS011;7180;52.742;11.420;2023-03-21T00:16:42;24.53;;;22.03;;
8584;SDS011;7180;52.742;11.420;2023-03-21T00:19:09;24.47;;;21.67;;
8584;SDS011;7180;52.742;11.420;2023-03-21T00:21:36;24.00;;;21.40;;
8584;SDS011;7180;52.742;11.420;2023-03-21T00:24:02;24.83;;;22.30;;
8584;SDS011;7180;52.742;11.420;2023-03-21T00:26:27;25.27;;;22.73;;
8584;SDS011;7180;52.742;11.420;2023-03-21T00:28:53;25.67;;;23.07;;
8584;SDS011;7180;52.742;11.420;2023-03-21T00:31:18;25.63;;;22.92;;
8584;SDS011;7180;52.742;11.420;2023-03-21T00:33:43;25.60;;;22.90;;
8584;SDS011;7180;52.742;11.420;2023-03-21T00:36:09;24.30;;;21.80;;
8584;SDS011;7180;52.742;11.420;2023-03-21T00:38:35;25.13;;;22.40;;
8584;SDS011;7180;52.742;11.420;2023-03-21T00:41:04;25.97;;;23.27;;
8584;SDS011;7180;52.742;11.420;2023-03-21T00:43:30;25.13;;;22.63;;
8584;SDS011;7180;52.742;11.420;2023-03-21T00:45:57;25.40;;;22.90;;
8584;SDS011;7180;52.742;11.420;2023-03-21T00:48:22;26.60;;;23.80;;
8584;SDS011;7180;52.742;11.420;2023-03-21T00:50:48;25.93;;;23.10;;
8584;SDS011;7180;52.742;11.420;2023-03-21T00:53:16;27.17;;;23.80;;
8584;SDS011;7180;52.742;11.420;2023-03-21T00:55:42;25.27;;;22.67;;
8584;SDS011;7180;52.742;11.420;2023-03-21T00:58:07;25.10;;;22.40;;
8584;SDS011;7180;52.742;11.420;2023-03-21T01:00:32;24.15;;;21.77;;
8584;SDS011;7180;52.742;11.420;2023-03-21T01:02:58;25.67;;;22.13;;
8584;SDS011;7180;52.742;11.420;2023-03-21T01:05:30;24.70;;;22.20;;
8584;SDS011;7180;52.742;11.420;2023-03-21T01:08:15;25.10;;;22.60;;
8584;SDS011;7180;52.742;11.420;2023-03-21T01:10:41;25.63;;;23.03;;
8584;SDS011;7180;52.742;11.420;2023-03-21T01:13:07;26.13;;;23.33;;
8584;SDS011;7180;52.742;11.420;2023-03-21T01:15:32;24.43;;;21.93;;
8584;SDS011;7180;52.742;11.420;2023-03-21T01:17:57;25.17;;;22.47;;
8584;SDS011;7180;52.742;11.420;2023-03-21T01:20:22;27.03;;;24.10;;
8584;SDS011;7180;52.742;11.420;2023-03-21T01:22:48;26.38;;;23.58;;
8584;SDS011;7180;52.742;11.420;2023-03-21T01:25:13;28.08;;;24.15;;
8584;SDS011;7180;52.742;11.420;2023-03-21T01:27:38;27.90;;;24.10;;
8584;SDS011;7180;52.742;11.420;2023-03-21T01:30:03;28.70;;;24.10;;
8584;SDS011;7180;52.742;11.420;2023-03-21T01:32:29;26.60;;;23.47;;
8584;SDS011;7180;52.742;11.420;2023-03-21T01:34:54;25.40;;;22.70;;
8584;SDS011;7180;52.742;11.420;2023-03-21T01:37:20;26.30;;;23.50;;
8584;SDS011;7180;52.742;11.420;2023-03-21T01:39:45;27.13;;;23.85;;
8584;SDS011;7180;52.742;11.420;2023-03-21T01:42:13;24.93;;;22.30;;
8584;SDS011;7180;52.742;11.420;2023-03-21T01:47:33;28.27;;;24.77;;
8584;SDS011;7180;52.742;11.420;2023-03-21T01:49:59;26.85;;;23.98;;
8584;SDS011;7180;52.742;11.420;2023-03-21T01:52:26;27.97;;;24.90;;
8584;SDS011;7180;52.742;11.420;2023-03-21T01:54:53;26.27;;;23.27;;
8584;SDS011;7180;52.742;11.420;2023-03-21T01:57:27;28.57;;;23.57;;
8584;SDS011;7180;52.742;11.420;2023-03-21T01:59:56;28.27;;;23.90;;
8584;SDS011;7180;52.742;11.420;2023-03-21T02:02:26;29.33;;;24.70;;
8584;SDS011;7180;52.742;11.420;2023-03-21T02:04:52;29.63;;;24.90;;
8584;SDS011;7180;52.742;11.420;2023-03-21T02:07:29;27.90;;;24.97;;
8584;SDS011;7180;52.742;11.420;2023-03-21T02:09:55;27.07;;;24.17;;
8584;SDS011;7180;52.742;11.420;2023-03-21T02:12:22;27.87;;;24.97;;
8584;SDS011;7180;52.742;11.420;2023-03-21T02:14:47;27.67;;;24.67;;
8584;SDS011;7180;52.742;11.420;2023-03-21T02:27:35;28.20;;;25.20;;
8584;SDS011;7180;52.742;11.420;2023-03-21T02:37:41;29.73;;;25.97;;
8584;SDS011;7180;52.742;11.420;2023-03-21T02:40:10;26.53;;;23.60;;
8584;SDS011;7180;52.742;11.420;2023-03-21T02:42:43;28.53;;;25.43;;
8584;SDS011;7180;52.742;11.420;2023-03-21T02:45:16;26.50;;;23.70;;
8584;SDS011;7180;52.742;11.420;2023-03-21T02:47:44;26.57;;;23.70;;
8584;SDS011;7180;52.742;11.420;2023-03-21T02:50:15;27.10;;;24.17;;
8584;SDS011;7180;52.742;11.420;2023-03-21T02:52:42;29.00;;;23.43;;
8584;SDS011;7180;52.742;11.420;2023-03-21T02:55:13;26.83;;;24.03;;
8584;SDS011;7180;52.742;11.420;2023-03-21T02:57:42;27.50;;;24.60;;
8584;SDS011;7180;52.742;11.420;2023-03-21T03:00:09;26.57;;;23.90;;
8584;SDS011;7180;52.742;11.420;2023-03-21T03:02:36;27.33;;;24.40;;
8584;SDS011;7180;52.742;11.420;2023-03-21T03:05:09;26.07;;;23.30;;
8584;SDS011;7180;52.742;11.420;2023-03-21T03:07:44;24.83;;;22.33;;
8584;SDS011;7180;52.742;11.420;2023-03-21T03:12:45;26.47;;;23.73;;
8584;SDS011;7180;52.742;11.420;2023-03-21T03:24:09;26.43;;;23.73;;
8584;SDS011;7180;52.742;11.420;2023-03-21T03:26:04;27.13;;;24.33;;
8584;SDS011;7180;52.742;11.420;2023-03-21T03:28:32;27.47;;;24.33;;
8584;SDS011;7180;52.742;11.420;2023-03-21T03:30:58;26.67;;;23.93;;
8584;SDS011;7180;52.742;11.420;2023-03-21T03:33:24;26.53;;;23.93;;
8584;SDS011;7180;52.742;11.420;2023-03-21T03:35:50;26.60;;;23.80;;
8584;SDS011;7180;52.742;11.420;2023-03-21T03:38:16;27.03;;;24.23;;
8584;SDS011;7180;52.742;11.420;2023-03-21T03:40:44;27.67;;;24.77;;
8584;SDS011;7180;52.742;11.420;2023-03-21T03:43:11;27.33;;;24.43;;
8584;SDS011;7180;52.742;11.420;2023-03-21T03:45:43;28.27;;;25.37;;
8584;SDS011;7180;52.742;11.420;2023-03-21T03:48:27;26.50;;;23.80;;
8584;SDS011;7180;52.742;11.420;2023-03-21T03:50:59;28.90;;;25.03;;
8584;SDS011;7180;52.742;11.420;2023-03-21T03:53:28;28.57;;;25.67;;
8584;SDS011;7180;52.742;11.420;2023-03-21T03:55:54;27.80;;;24.90;;
8584;SDS011;7180;52.742;11.420;2023-03-21T03:58:20;27.87;;;24.87;;
8584;SDS011;7180;52.742;11.420;2023-03-21T04:00:46;29.30;;;25.60;;
8584;SDS011;7180;52.742;11.420;2023-03-21T04:03:11;28.03;;;25.07;;
8584;SDS011;7180;52.742;11.420;2023-03-21T04:05:37;29.57;;;26.43;;
8584;SDS011;7180;52.742;11.420;2023-03-21T04:08:02;29.50;;;25.83;;
8584;SDS011;7180;52.742;11.420;2023-03-21T04:10:27;31.43;;;26.87;;
8584;SDS011;7180;52.742;11.420;2023-03-21T04:12:52;29.77;;;25.40;;
8584;SDS011;7180;52.742;11.420;2023-03-21T04:15:17;28.98;;;25.88;;
8584;SDS011;7180;52.742;11.420;2023-03-21T04:17:46;29.07;;;25.93;;
8584;SDS011;7180;52.742;11.420;2023-03-21T04:20:11;27.93;;;25.03;;
8584;SDS011;7180;52.742;11.420;2023-03-21T04:22:36;28.43;;;25.43;;
8584;SDS011;7180;52.742;11.420;2023-03-21T04:25:02;28.38;;;25.35;;
8584;SDS011;7180;52.742;11.420;2023-03-21T04:27:29;29.30;;;26.17;;
8584;SDS011;7180;52.742;11.420;2023-03-21T04:29:55;31.33;;;26.90;;
8584;SDS011;7180;52.742;11.420;2023-03-21T04:32:20;29.63;;;26.43;;
8584;SDS011;7180;52.742;11.420;2023-03-21T04:34:48;30.07;;;25.77;;
8584;SDS011;7180;52.742;11.420;2023-03-21T04:37:18;29.00;;;25.90;;
8584;SDS011;7180;52.742;11.420;2023-03-21T04:39:43;29.80;;;25.53;;
8584;SDS011;7180;52.742;11.420;2023-03-21T04:42:10;28.10;;;25.10;;
8584;SDS011;7180;52.742;11.420;2023-03-21T04:44:35;29.70;;;26.27;;
8584;SDS011;7180;52.742;11.420;2023-03-21T04:47:01;29.30;;;26.13;;
8584;SDS011;7180;52.742;11.420;2023-03-21T04:49:26;29.60;;;26.13;;
8584;SDS011;7180;52.742;11.420;2023-03-21T04:51:51;31.23;;;26.80;;
8584;SDS011;7180;52.742;11.420;2023-03-21T04:54:16;29.70;;;26.50;;
8584;SDS011;7180;52.742;11.420;2023-03-21T04:56:41;29.73;;;26.10;;
8584;SDS011;7180;52.742;11.420;2023-03-21T04:59:09;29.60;;;26.47;;
8584;SDS011;7180;52.742;11.420;2023-03-21T05:01:35;28.37;;;25.37;;
8584;SDS011;7180;52.742;11.420;2023-03-21T05:04:01;30.83;;;26.27;;
8584;SDS011;7180;52.742;11.420;2023-03-21T05:06:26;28.77;;;25.60;;
8584;SDS011;7180;52.742;11.420;2023-03-21T05:08:52;29.80;;;26.67;;
8584;SDS011;7180;52.742;11.420;2023-03-21T05:11:17;28.93;;;25.77;;
8584;SDS011;7180;52.742;11.420;2023-03-21T05:13:42;30.17;;;26.13;;
8584;SDS011;7180;52.742;11.420;2023-03-21T05:16:07;30.95;;;26.30;;
8584;SDS011;7180;52.742;11.420;2023-03-21T05:18:33;29.23;;;26.17;;
8584;SDS011;7180;52.742;11.420;2023-03-21T05:21:02;28.93;;;25.80;;
8584;SDS011;7180;52.742;11.420;2023-03-21T05:23:28;29.60;;;26.10;;
8584;SDS011;7180;52.742;11.420;2023-03-21T05:25:55;29.07;;;25.97;;
8584;SDS011;7180;52.742;11.420;2023-03-21T05:28:20;28.98;;;25.90;;
8584;SDS011;7180;52.742;11.420;2023-03-21T05:30:45;28.83;;;25.73;;
8584;SDS011;7180;52.742;11.420;2023-03-21T05:33:11;29.00;;;25.90;;
8584;SDS011;7180;52.742;11.420;2023-03-21T05:35:36;32.20;;;27.17;;
8584;SDS011;7180;52.742;11.420;2023-03-21T05:38:01;32.67;;;28.03;;
8584;SDS011;7180;52.742;11.420;2023-03-21T05:40:26;30.93;;;27.53;;
8584;SDS011;7180;52.742;11.420;2023-03-21T05:42:52;28.47;;;25.50;;
8584;SDS011;7180;52.742;11.420;2023-03-21T05:45:17;29.23;;;26.07;;
8584;SDS011;7180;52.742;11.420;2023-03-21T05:47:42;31.10;;;26.93;;
8584;SDS011;7180;52.742;11.420;2023-03-21T05:50:08;29.37;;;26.33;;
8584;SDS011;7180;52.742;11.420;2023-03-21T05:52:33;29.43;;;26.27;;
8584;SDS011;7180;52.742;11.420;2023-03-21T05:54:58;29.50;;;26.10;;
8584;SDS011;7180;52.742;11.420;2023-03-21T05:57:24;30.23;;;26.97;;
8584;SDS011;7180;52.742;11.420;2023-03-21T05:59:50;30.73;;;27.63;;
8584;SDS011;7180;52.742;11.420;2023-03-21T06:02:15;30.50;;;27.20;;
8584;SDS011;7180;52.742;11.420;2023-03-21T06:04:40;30.13;;;26.83;;
8584;SDS011;7180;52.742;11.420;2023-03-21T06:07:06;30.43;;;26.53;;
8584;SDS011;7180;52.742;11.420;2023-03-21T06:09:31;29.45;;;26.27;;
8584;SDS011;7180;52.742;11.420;2023-03-21T06:11:57;29.57;;;26.37;;
8584;SDS011;7180;52.742;11.420;2023-03-21T06:14:23;30.13;;;26.83;;
8584;SDS011;7180;52.742;11.420;2023-03-21T06:16:48;29.67;;;26.47;;
8584;SDS011;7180;52.742;11.420;2023-03-21T06:19:14;29.00;;;25.23;;
8584;SDS011;7180;52.742;11.420;2023-03-21T06:21:39;28.73;;;25.23;;
8584;SDS011;7180;52.742;11.420;2023-03-21T06:24:05;28.25;;;25.35;;
8584;SDS011;7180;52.742;11.420;2023-03-21T06:26:30;29.33;;;26.23;;
8584;SDS011;7180;52.742;11.420;2023-03-21T06:28:55;29.13;;;25.20;;
8584;SDS011;7180;52.742;11.420;2023-03-21T06:31:20;28.67;;;25.73;;
8584;SDS011;7180;52.742;11.420;2023-03-21T06:33:47;29.87;;;25.63;;
8584;SDS011;7180;52.742;11.420;2023-03-21T06:36:12;31.57;;;26.40;;
8584;SDS011;7180;52.742;11.420;2023-03-21T06:38:37;29.07;;;25.93;;
8584;SDS011;7180;52.742;11.420;2023-03-21T06:41:03;33.03;;;27.27;;
8584;SDS011;7180;52.742;11.420;2023-03-21T06:43:29;30.03;;;26.83;;
8584;SDS011;7180;52.742;11.420;2023-03-21T06:45:55;31.33;;;27.93;;
8584;SDS011;7180;52.742;11.420;2023-03-21T06:48:20;31.95;;;27.20;;
8584;SDS011;7180;52.742;11.420;2023-03-21T06:50:47;35.13;;;27.80;;
8584;SDS011;7180;52.742;11.420;2023-03-21T06:53:12;29.63;;;26.40;;
8584;SDS011;7180;52.742;11.420;2023-03-21T06:55:37;30.65;;;27.35;;
8584;SDS011;7180;52.742;11.420;2023-03-21T06:58:02;30.60;;;27.33;;
8584;SDS011;7180;52.742;11.420;2023-03-21T07:00:27;31.67;;;27.73;;
8584;SDS011;7180;52.742;11.420;2023-03-21T07:02:52;31.50;;;27.27;;
8584;SDS011;7180;52.742;11.420;2023-03-21T07:05:18;35.10;;;28.57;;
8584;SDS011;7180;52.742;11.420;2023-03-21T07:07:43;33.00;;;28.23;;
8584;SDS011;7180;52.742;11.420;2023-03-21T07:10:08;31.57;;;28.23;;
8584;SDS011;7180;52.742;11.420;2023-03-21T07:12:34;34.93;;;28.10;;
8584;SDS011;7180;52.742;11.420;2023-03-21T07:15:00;33.17;;;28.27;;
8584;SDS011;7180;52.742;11.420;2023-03-21T07:17:25;36.37;;;28.53;;
8584;SDS011;7180;52.742;11.420;2023-03-21T07:19:51;34.93;;;28.93;;
8584;SDS011;7180;52.742;11.420;2023-03-21T07:22:16;32.67;;;28.52;;
8584;SDS011;7180;52.742;11.420;2023-03-21T07:24:41;33.60;;;28.17;;
8584;SDS011;7180;52.742;11.420;2023-03-21T07:27:06;34.23;;;28.27;;
8584;SDS011;7180;52.742;11.420;2023-03-21T07:29:31;35.43;;;27.57;;
8584;SDS011;7180;52.742;11.420;2023-03-21T07:31:57;32.70;;;28.55;;
8584;SDS011;7180;52.742;11.420;2023-03-21T07:34:22;32.10;;;27.87;;
8584;SDS011;7180;52.742;11.420;2023-03-21T07:36:47;31.93;;;26.93;;
8584;SDS011;7180;52.742;11.420;2023-03-21T07:39:12;30.73;;;27.53;;
8584;SDS011;7180;52.742;11.420;2023-03-21T07:41:37;30.27;;;26.90;;
8584;SDS011;7180;52.742;11.420;2023-03-21T07:44:02;30.13;;;26.83;;
8584;SDS011;7180;52.742;11.420;2023-03-21T07:46:28;29.87;;;26.67;;
8584;SDS011;7180;52.742;11.420;2023-03-21T07:48:53;28.60;;;25.60;;
8584;SDS011;7180;52.742;11.420;2023-03-21T07:51:18;27.70;;;24.23;;
8584;SDS011;7180;52.742;11.420;2023-03-21T07:53:43;31.97;;;25.67;;
8584;SDS011;7180;52.742;11.420;2023-03-21T07:56:12;28.00;;;25.00;;
8584;SDS011;7180;52.742;11.420;2023-03-21T07:58:37;27.70;;;24.90;;
8584;SDS011;7180;52.742;11.420;2023-03-21T08:01:02;28.33;;;25.40;;
8584;SDS011;7180;52.742;11.420;2023-03-21T08:03:27;30.33;;;27.17;;
8584;SDS011;7180;52.742;11.420;2023-03-21T08:05:53;29.10;;;26.10;;
8584;SDS011;7180;52.742;11.420;2023-03-21T08:08:19;28.33;;;25.33;;
8584;SDS011;7180;52.742;11.420;2023-03-21T08:10:44;28.37;;;25.67;;
8584;SDS011;7180;52.742;11.420;2023-03-21T08:13:09;28.57;;;24.07;;
8584;SDS011;7180;52.742;11.420;2023-03-21T08:15:35;26.60;;;23.90;;
8584;SDS011;7180;52.742;11.420;2023-03-21T08:18:01;27.33;;;24.53;;
8584;SDS011;7180;52.742;11.420;2023-03-21T08:20:26;27.90;;;25.20;;
8584;SDS011;7180;52.742;11.420;2023-03-21T08:22:51;27.63;;;24.90;;
8584;SDS011;7180;52.742;11.420;2023-03-21T08:25:17;27.17;;;24.43;;
8584;SDS011;7180;52.742;11.420;2023-03-21T08:27:44;26.40;;;23.77;;
8584;SDS011;7180;52.742;11.420;2023-03-21T08:30:09;26.20;;;23.60;;
8584;SDS011;7180;52.742;11.420;2023-03-21T08:32:36;27.27;;;24.57;;
8584;SDS011;7180;52.742;11.420;2023-03-21T08:35:03;26.53;;;23.77;;
8584;SDS011;7180;52.742;11.420;2023-03-21T08:37:28;25.63;;;23.03;;
8584;SDS011;7180;52.742;11.420;2023-03-21T08:39:54;27.47;;;24.60;;
8584;SDS011;7180;52.742;11.420;2023-03-21T08:42:19;26.33;;;23.73;;
8584;SDS011;7180;52.742;11.420;2023-03-21T08:44:45;27.40;;;24.63;;
8584;SDS011;7180;52.742;11.420;2023-03-21T08:47:11;27.03;;;24.53;;
8584;SDS011;7180;52.742;11.420;2023-03-21T08:49:36;25.13;;;22.63;;
8584;SDS011;7180;52.742;11.420;2023-03-21T08:52:01;25.37;;;22.87;;
8584;SDS011;7180;52.742;11.420;2023-03-21T08:54:27;25.00;;;22.43;;
8584;SDS011;7180;52.742;11.420;2023-03-21T08:56:52;24.23;;;22.03;;
8584;SDS011;7180;52.742;11.420;2023-03-21T08:59:17;24.63;;;22.13;;
8584;SDS011;7180;52.742;11.420;2023-03-21T09:01:42;23.80;;;21.50;;
8584;SDS011;7180;52.742;11.420;2023-03-21T09:04:07;23.50;;;21.15;;
8584;SDS011;7180;52.742;11.420;2023-03-21T09:06:35;23.00;;;21.00;;
8584;SDS011;7180;52.742;11.420;2023-03-21T09:09:00;23.67;;;21.43;;
8584;SDS011;7180;52.742;11.420;2023-03-21T09:11:26;22.80;;;20.60;;
8584;SDS011;7180;52.742;11.420;2023-03-21T09:13:51;23.57;;;21.37;;
8584;SDS011;7180;52.742;11.420;2023-03-21T09:16:16;21.90;;;19.90;;
8584;SDS011;7180;52.742;11.420;2023-03-21T09:18:41;21.67;;;19.73;;
8584;SDS011;7180;52.742;11.420;2023-03-21T09:21:11;24.43;;;21.83;;
8584;SDS011;7180;52.742;11.420;2023-03-21T09:23:37;23.80;;;21.50;;
8584;SDS011;7180;52.742;11.420;2023-03-21T09:26:03;25.43;;;23.10;;
8584;SDS011;7180;52.742;11.420;2023-03-21T09:28:29;23.27;;;20.83;;
8584;SDS011;7180;52.742;11.420;2023-03-21T09:30:56;22.83;;;20.83;;
8584;SDS011;7180;52.742;11.420;2023-03-21T09:33:22;24.40;;;22.10;;
8584;SDS011;7180;52.742;11.420;2023-03-21T09:35:49;22.33;;;20.33;;
8584;SDS011;7180;52.742;11.420;2023-03-21T09:38:14;23.20;;;21.17;;
8584;SDS011;7180;52.742;11.420;2023-03-21T09:48:43;23.23;;;21.17;;
8584;SDS011;7180;52.742;11.420;2023-03-21T09:51:12;22.80;;;20.80;;
8584;SDS011;7180;52.742;11.420;2023-03-21T09:53:39;21.90;;;19.90;;
8584;SDS011;7180;52.742;11.420;2023-03-21T09:56:05;23.63;;;21.33;;
8584;SDS011;7180;52.742;11.420;2023-03-21T09:58:36;24.57;;;22.13;;
8584;SDS011;7180;52.742;11.420;2023-03-21T10:01:18;23.67;;;21.37;;
8584;SDS011;7180;52.742;11.420;2023-03-21T10:03:52;22.50;;;20.40;;
8584;SDS011;7180;52.742;11.420;2023-03-21T10:06:18;24.37;;;22.03;;
8584;SDS011;7180;52.742;11.420;2023-03-21T10:08:45;23.17;;;20.97;;
8584;SDS011;7180;52.742;11.420;2023-03-21T10:13:42;23.17;;;20.77;;
8584;SDS011;7180;52.742;11.420;2023-03-21T10:16:14;21.93;;;19.93;;
8584;SDS011;7180;52.742;11.420;2023-03-21T10:18:40;23.00;;;20.77;;
8584;SDS011;7180;52.742;11.420;2023-03-21T10:21:06;22.80;;;20.60;;
8584;SDS011;7180;52.742;11.420;2023-03-21T10:23:31;23.63;;;21.20;;
8584;SDS011;7180;52.742;11.420;2023-03-21T10:25:58;23.53;;;21.23;;
8584;SDS011;7180;52.742;11.420;2023-03-21T10:28:25;23.63;;;21.43;;
8584;SDS011;7180;52.742;11.420;2023-03-21T10:30:51;24.70;;;22.37;;
8584;SDS011;7180;52.742;11.420;2023-03-21T10:33:22;25.20;;;22.90;;
8584;SDS011;7180;52.742;11.420;2023-03-21T10:35:51;24.13;;;21.80;;
8584;SDS011;7180;52.742;11.420;2023-03-21T10:38:18;25.07;;;22.67;;
8584;SDS011;7180;52.742;11.420;2023-03-21T10:40:44;24.37;;;21.97;;
8584;SDS011;7180;52.742;11.420;2023-03-21T10:43:20;23.33;;;21.27;;
8584;SDS011;7180;52.742;11.420;2023-03-21T10:45:54;24.40;;;22.00;;
8584;SDS011;7180;52.742;11.420;2023-03-21T10:48:19;24.40;;;21.90;;
8584;SDS011;7180;52.742;11.420;2023-03-21T10:50:49;23.87;;;21.47;;
8584;SDS011;7180;52.742;11.420;2023-03-21T10:53:22;23.03;;;20.83;;
8584;SDS011;7180;52.742;11.420;2023-03-21T10:55:51;21.57;;;19.57;;
8584;SDS011;7180;52.742;11.420;2023-03-21T10:58:18;21.63;;;19.53;;
8584;SDS011;7180;52.742;11.420;2023-03-21T11:00:49;21.70;;;19.67;;
8584;SDS011;7180;52.742;11.420;2023-03-21T11:03:29;21.53;;;19.43;;
8584;SDS011;7180;52.742;11.420;2023-03-21T11:05:55;21.60;;;19.60;;
8584;SDS011;7180;52.742;11.420;2023-03-21T11:08:21;20.20;;;18.30;;
8584;SDS011;7180;52.742;11.420;2023-03-21T11:10:52;21.37;;;19.37;;
8584;SDS011;7180;52.742;11.420;2023-03-21T11:13:24;19.40;;;17.70;;
8584;SDS011;7180;52.742;11.420;2023-03-21T11:15:55;20.20;;;18.20;;
8584;SDS011;7180;52.742;11.420;2023-03-21T11:18:24;21.10;;;19.00;;
8584;SDS011;7180;52.742;11.420;2023-03-21T11:20:53;22.13;;;20.23;;
8584;SDS011;7180;52.742;11.420;2023-03-21T11:23:19;22.67;;;20.57;;
8584;SDS011;7180;52.742;11.420;2023-03-21T11:25:46;21.87;;;19.73;;
8584;SDS011;7180;52.742;11.420;2023-03-21T11:28:16;21.00;;;19.17;;
8584;SDS011;7180;52.742;11.420;2023-03-21T11:30:55;20.00;;;18.30;;
8584;SDS011;7180;52.742;11.420;2023-03-21T11:33:22;22.03;;;20.03;;
8584;SDS011;7180;52.742;11.420;2023-03-21T11:35:57;22.33;;;20.33;;
8584;SDS011;7180;52.742;11.420;2023-03-21T11:38:23;20.47;;;18.50;;
8584;SDS011;7180;52.742;11.420;2023-03-21T11:40:55;22.53;;;20.40;;
8584;SDS011;7180;52.742;11.420;2023-03-21T11:46:01;21.23;;;19.17;;
8584;SDS011;7180;52.742;11.420;2023-03-21T11:48:29;18.30;;;16.80;;
8584;SDS011;7180;52.742;11.420;2023-03-21T11:51:02;18.60;;;16.97;;
8584;SDS011;7180;52.742;11.420;2023-03-21T11:53:39;19.80;;;17.90;;
8584;SDS011;7180;52.742;11.420;2023-03-21T11:56:11;20.47;;;18.57;;
8584;SDS011;7180;52.742;11.420;2023-03-21T11:58:42;21.10;;;19.07;;
8584;SDS011;7180;52.742;11.420;2023-03-21T12:01:25;20.00;;;18.23;;
8584;SDS011;7180;52.742;11.420;2023-03-21T12:03:54;20.00;;;18.17;;
8584;SDS011;7180;52.742;11.420;2023-03-21T12:16:46;20.77;;;19.07;;
8584;SDS011;7180;52.742;11.420;2023-03-21T12:19:20;19.93;;;18.13;;
8584;SDS011;7180;52.742;11.420;2023-03-21T12:27:10;20.33;;;18.40;;
8584;SDS011;7180;52.742;11.420;2023-03-21T12:37:16;16.43;;;15.03;;
8584;SDS011;7180;52.742;11.420;2023-03-21T12:39:47;15.83;;;14.43;;
8584;SDS011;7180;52.742;11.420;2023-03-21T12:42:23;15.73;;;14.43;;
8584;SDS011;7180;52.742;11.420;2023-03-21T12:45:11;17.60;;;15.97;;
8584;SDS011;7180;52.742;11.420;2023-03-21T12:47:39;16.13;;;14.63;;
8584;SDS011;7180;52.742;11.420;2023-03-21T12:52:48;16.30;;;14.60;;
8584;SDS011;7180;52.742;11.420;2023-03-21T12:55:20;16.00;;;14.60;;
8584;SDS011;7180;52.742;11.420;2023-03-21T13:00:17;17.97;;;16.47;;
8584;SDS011;7180;52.742;11.420;2023-03-21T13:03:03;20.53;;;18.80;;
8584;SDS011;7180;52.742;11.420;2023-03-21T13:05:32;20.63;;;18.83;;
8584;SDS011;7180;52.742;11.420;2023-03-21T13:10:28;20.70;;;18.97;;
8584;SDS011;7180;52.742;11.420;2023-03-21T13:12:57;22.10;;;20.13;;
8584;SDS011;7180;52.742;11.420;2023-03-21T13:15:29;19.63;;;17.90;;
8584;SDS011;7180;52.742;11.420;2023-03-21T13:18:12;18.63;;;16.93;;
8584;SDS011;7180;52.742;11.420;2023-03-21T13:20:56;19.23;;;17.43;;
8584;SDS011;7180;52.742;11.420;2023-03-21T13:23:32;19.47;;;17.90;;
8584;SDS011;7180;52.742;11.420;2023-03-21T13:25:57;19.33;;;17.63;;
8584;SDS011;7180;52.742;11.420;2023-03-21T13:28:26;18.60;;;16.90;;
8584;SDS011;7180;52.742;11.420;2023-03-21T13:30:52;18.80;;;17.07;;
8584;SDS011;7180;52.742;11.420;2023-03-21T13:33:30;19.77;;;18.07;;
8584;SDS011;7180;52.742;11.420;2023-03-21T13:36:00;19.70;;;18.00;;
8584;SDS011;7180;52.742;11.420;2023-03-21T13:38:31;21.57;;;19.53;;
8584;SDS011;7180;52.742;11.420;2023-03-21T13:41:08;21.23;;;19.07;;
8584;SDS011;7180;52.742;11.420;2023-03-21T13:46:07;21.73;;;19.83;;
8584;SDS011;7180;52.742;11.420;2023-03-21T13:59:10;20.40;;;18.47;;
8584;SDS011;7180;52.742;11.420;2023-03-21T14:01:37;20.33;;;18.53;;
8584;SDS011;7180;52.742;11.420;2023-03-21T14:04:05;19.70;;;17.97;;
8584;SDS011;7180;52.742;11.420;2023-03-21T14:06:35;18.33;;;16.70;;
8584;SDS011;7180;52.742;11.420;2023-03-21T14:09:02;18.93;;;17.03;;
8584;SDS011;7180;52.742;11.420;2023-03-21T14:11:28;19.27;;;17.47;;
8584;SDS011;7180;52.742;11.420;2023-03-21T14:13:55;18.33;;;16.70;;
8584;SDS011;7180;52.742;11.420;2023-03-21T14:16:23;17.07;;;15.40;;
8584;SDS011;7180;52.742;11.420;2023-03-21T14:18:56;18.53;;;16.73;;
8584;SDS011;7180;52.742;11.420;2023-03-21T14:21:27;18.13;;;16.47;;
8584;SDS011;7180;52.742;11.420;2023-03-21T14:23:54;18.33;;;16.73;;
8584;SDS011;7180;52.742;11.420;2023-03-21T14:26:20;17.87;;;16.07;;
8584;SDS011;7180;52.742;11.420;2023-03-21T14:28:47;17.77;;;16.10;;
8584;SDS011;7180;52.742;11.420;2023-03-21T14:31:14;16.80;;;15.30;;
8584;SDS011;7180;52.742;11.420;2023-03-21T14:33:44;16.10;;;14.70;;
8584;SDS011;7180;52.742;11.420;2023-03-21T14:36:19;16.07;;;14.70;;
8584;SDS011;7180;52.742;11.420;2023-03-21T14:38:52;16.47;;;14.87;;
8584;SDS011;7180;52.742;11.420;2023-03-21T14:41:20;16.30;;;14.87;;
8584;SDS011;7180;52.742;11.420;2023-03-21T14:43:59;15.83;;;14.43;;
8584;SDS011;7180;52.742;11.420;2023-03-21T14:46:25;15.73;;;14.27;;
8584;SDS011;7180;52.742;11.420;2023-03-21T14:48:50;15.83;;;14.33;;
8584;SDS011;7180;52.742;11.420;2023-03-21T14:51:15;16.02;;;14.50;;
8584;SDS011;7180;52.742;11.420;2023-03-21T14:53:41;15.67;;;14.33;;
8584;SDS011;7180;52.742;11.420;2023-03-21T14:56:14;16.50;;;15.00;;
8584;SDS011;7180;52.742;11.420;2023-03-21T14:58:41;16.73;;;15.10;;
8584;SDS011;7180;52.742;11.420;2023-03-21T15:01:11;16.67;;;15.27;;
8584;SDS011;7180;52.742;11.420;2023-03-21T15:03:37;17.40;;;15.80;;
8584;SDS011;7180;52.742;11.420;2023-03-21T15:06:03;17.10;;;15.60;;
8584;SDS011;7180;52.742;11.420;2023-03-21T15:08:28;17.27;;;15.77;;
8584;SDS011;7180;52.742;11.420;2023-03-21T15:11:27;17.33;;;15.93;;
8584;SDS011;7180;52.742;11.420;2023-03-21T15:13:48;17.40;;;15.80;;
8584;SDS011;7180;52.742;11.420;2023-03-21T15:16:16;17.97;;;16.27;;
8584;SDS011;7180;52.742;11.420;2023-03-21T15:18:41;16.87;;;15.27;;
8584;SDS011;7180;52.742;11.420;2023-03-21T15:21:19;17.83;;;16.20;;
8584;SDS011;7180;52.742;11.420;2023-03-21T15:23:46;18.27;;;16.47;;
8584;SDS011;7180;52.742;11.420;2023-03-21T15:26:16;20.13;;;18.10;;
8584;SDS011;7180;52.742;11.420;2023-03-21T15:28:42;18.03;;;16.43;;
8584;SDS011;7180;52.742;11.420;2023-03-21T15:31:13;16.73;;;15.23;;
8584;SDS011;7180;52.742;11.420;2023-03-21T15:33:39;16.97;;;15.47;;
8584;SDS011;7180;52.742;11.420;2023-03-21T15:36:07;16.17;;;14.87;;
8584;SDS011;7180;52.742;11.420;2023-03-21T15:38:35;16.30;;;14.83;;
8584;SDS011;7180;52.742;11.420;2023-03-21T15:43:45;17.37;;;15.67;;
8584;SDS011;7180;52.742;11.420;2023-03-21T15:46:15;16.47;;;15.07;;
8584;SDS011;7180;52.742;11.420;2023-03-21T15:48:40;16.90;;;15.50;;
8584;SDS011;7180;52.742;11.420;2023-03-21T15:51:05;16.47;;;15.10;;
8584;SDS011;7180;52.742;11.420;2023-03-21T15:53:32;16.20;;;14.83;;
8584;SDS011;7180;52.742;11.420;2023-03-21T15:55:58;16.37;;;14.97;;
8584;SDS011;7180;52.742;11.420;2023-03-21T15:58:26;17.47;;;15.77;;
8584;SDS011;7180;52.742;11.420;2023-03-21T16:00:52;17.87;;;16.20;;
8584;SDS011;7180;52.742;11.420;2023-03-21T16:03:20;16.97;;;15.47;;
8584;SDS011;7180;52.742;11.420;2023-03-21T16:08:32;16.47;;;15.07;;
8584;SDS011;7180;52.742;11.420;2023-03-21T16:11:16;17.87;;;16.30;;